sensor_id;sensor_type;location;lat;lon;timestamp;temperature;humidity
6696;DHT22;3385;48.928;10.330;2022-08-01T00:00:35;20.30;95.40
6696;DHT22;3385;48.928;10.330;2022-08-01T00:03:01;20.30;95.30
6696;DHT22;3385;48.928;10.330;2022-08-01T00:05:27;20.30;95.60
6696;DHT22;3385;48.928;10.330;2022-08-01T00:07:53;20.30;95.60
6696;DHT22;3385;48.928;10.330;2022-08-01T00:10:19;20.30;95.90
6696;DHT22;3385;48.928;10.330;2022-08-01T00:12:45;20.20;95.80
6696;DHT22;3385;48.928;10.330;2022-08-01T00:15:16;20.20;95.90
6696;DHT22;3385;48.928;10.330;2022-08-01T00:17:42;20.20;96.20
6696;DHT22;3385;48.928;10.330;2022-08-01T00:20:11;20.20;96.00
6696;DHT22;3385;48.928;10.330;2022-08-01T00:22:37;20.20;96.20
6696;DHT22;3385;48.928;10.330;2022-08-01T00:25:03;20.20;96.30
6696;DHT22;3385;48.928;10.330;2022-08-01T00:27:29;20.20;96.20
6696;DHT22;3385;48.928;10.330;2022-08-01T00:29:58;20.20;96.30
6696;DHT22;3385;48.928;10.330;2022-08-01T00:32:24;20.20;96.30
6696;DHT22;3385;48.928;10.330;2022-08-01T00:34:50;20.20;96.40
6696;DHT22;3385;48.928;10.330;2022-08-01T00:37:16;20.20;96.20
6696;DHT22;3385;48.928;10.330;2022-08-01T00:39:42;20.20;96.50
6696;DHT22;3385;48.928;10.330;2022-08-01T00:42:12;20.20;96.40
6696;DHT22;3385;48.928;10.330;2022-08-01T00:44:39;20.20;96.40
6696;DHT22;3385;48.928;10.330;2022-08-01T00:47:06;20.20;96.20
6696;DHT22;3385;48.928;10.330;2022-08-01T00:49:32;20.20;96.40
6696;DHT22;3385;48.928;10.330;2022-08-01T00:51:58;20.20;96.50
6696;DHT22;3385;48.928;10.330;2022-08-01T00:54:25;20.10;96.80
6696;DHT22;3385;48.928;10.330;2022-08-01T00:56:52;20.10;96.80
6696;DHT22;3385;48.928;10.330;2022-08-01T00:59:20;20.00;97.20
6696;DHT22;3385;48.928;10.330;2022-08-01T01:01:47;20.00;97.20
6696;DHT22;3385;48.928;10.330;2022-08-01T01:04:13;20.00;97.60
6696;DHT22;3385;48.928;10.330;2022-08-01T01:06:48;19.90;97.70
6696;DHT22;3385;48.928;10.330;2022-08-01T01:12:46;19.80;98.30
6696;DHT22;3385;48.928;10.330;2022-08-01T01:17:28;19.80;98.70
6696;DHT22;3385;48.928;10.330;2022-08-01T01:19:59;19.70;98.80
6696;DHT22;3385;48.928;10.330;2022-08-01T01:22:42;19.70;99.10
6696;DHT22;3385;48.928;10.330;2022-08-01T01:28:27;19.70;99.70
6696;DHT22;3385;48.928;10.330;2022-08-01T01:30:56;19.60;99.70
6696;DHT22;3385;48.928;10.330;2022-08-01T01:33:24;19.60;99.90
6696;DHT22;3385;48.928;10.330;2022-08-01T01:35:56;19.60;99.90
6696;DHT22;3385;48.928;10.330;2022-08-01T01:38:29;19.60;99.90
6696;DHT22;3385;48.928;10.330;2022-08-01T01:40:58;19.60;99.90
6696;DHT22;3385;48.928;10.330;2022-08-01T01:43:26;19.50;99.90
6696;DHT22;3385;48.928;10.330;2022-08-01T01:45:53;19.50;99.90
6696;DHT22;3385;48.928;10.330;2022-08-01T01:48:20;19.40;99.90
6696;DHT22;3385;48.928;10.330;2022-08-01T01:50:47;19.40;99.90
6696;DHT22;3385;48.928;10.330;2022-08-01T01:53:17;19.30;99.90
6696;DHT22;3385;48.928;10.330;2022-08-01T01:55:46;19.30;99.90
6696;DHT22;3385;48.928;10.330;2022-08-01T01:58:13;19.30;99.90
6696;DHT22;3385;48.928;10.330;2022-08-01T02:00:42;19.20;99.90
6696;DHT22;3385;48.928;10.330;2022-08-01T02:03:11;19.20;99.90
6696;DHT22;3385;48.928;10.330;2022-08-01T02:05:38;19.10;99.90
6696;DHT22;3385;48.928;10.330;2022-08-01T02:08:05;19.10;99.90
6696;DHT22;3385;48.928;10.330;2022-08-01T02:10:34;19.00;99.90
6696;DHT22;3385;48.928;10.330;2022-08-01T02:13:03;19.00;99.90
6696;DHT22;3385;48.928;10.330;2022-08-01T02:15:34;19.00;99.90
6696;DHT22;3385;48.928;10.330;2022-08-01T02:18:05;18.90;99.90
6696;DHT22;3385;48.928;10.330;2022-08-01T02:20:34;18.90;99.90
6696;DHT22;3385;48.928;10.330;2022-08-01T02:23:08;18.90;99.90
6696;DHT22;3385;48.928;10.330;2022-08-01T02:25:41;18.80;99.90
6696;DHT22;3385;48.928;10.330;2022-08-01T02:28:15;18.80;99.90
6696;DHT22;3385;48.928;10.330;2022-08-01T02:30:46;18.80;99.90
6696;DHT22;3385;48.928;10.330;2022-08-01T02:33:31;18.80;99.90
6696;DHT22;3385;48.928;10.330;2022-08-01T02:36:00;18.80;99.90
6696;DHT22;3385;48.928;10.330;2022-08-01T02:38:28;18.80;99.90
6696;DHT22;3385;48.928;10.330;2022-08-01T02:40:59;18.70;99.90
6696;DHT22;3385;48.928;10.330;2022-08-01T02:43:30;18.70;99.90
6696;DHT22;3385;48.928;10.330;2022-08-01T02:46:00;18.60;99.90
6696;DHT22;3385;48.928;10.330;2022-08-01T02:48:30;18.60;99.90
6696;DHT22;3385;48.928;10.330;2022-08-01T02:51:01;18.50;99.90
6696;DHT22;3385;48.928;10.330;2022-08-01T02:53:31;20.40;99.90
6696;DHT22;3385;48.928;10.330;2022-08-01T02:55:58;18.40;99.90
6696;DHT22;3385;48.928;10.330;2022-08-01T02:58:25;18.40;99.90
6696;DHT22;3385;48.928;10.330;2022-08-01T03:00:52;18.40;99.90
6696;DHT22;3385;48.928;10.330;2022-08-01T03:03:19;18.40;99.90
6696;DHT22;3385;48.928;10.330;2022-08-01T03:05:45;18.40;99.90
6696;DHT22;3385;48.928;10.330;2022-08-01T03:08:13;18.40;99.90
6696;DHT22;3385;48.928;10.330;2022-08-01T03:10:43;18.40;99.90
6696;DHT22;3385;48.928;10.330;2022-08-01T03:13:11;18.40;99.90
6696;DHT22;3385;48.928;10.330;2022-08-01T03:15:39;18.50;99.90
6696;DHT22;3385;48.928;10.330;2022-08-01T03:18:08;18.40;99.90
6696;DHT22;3385;48.928;10.330;2022-08-01T03:20:35;18.40;99.90
6696;DHT22;3385;48.928;10.330;2022-08-01T03:23:08;18.30;99.90
6696;DHT22;3385;48.928;10.330;2022-08-01T03:25:36;18.30;99.90
6696;DHT22;3385;48.928;10.330;2022-08-01T03:28:06;18.40;99.90
6696;DHT22;3385;48.928;10.330;2022-08-01T03:30:32;18.40;99.90
6696;DHT22;3385;48.928;10.330;2022-08-01T03:32:59;18.30;99.90
6696;DHT22;3385;48.928;10.330;2022-08-01T03:35:33;18.30;99.90
6696;DHT22;3385;48.928;10.330;2022-08-01T03:38:01;18.30;99.90
6696;DHT22;3385;48.928;10.330;2022-08-01T03:40:43;18.30;99.90
6696;DHT22;3385;48.928;10.330;2022-08-01T03:43:40;18.30;99.90
6696;DHT22;3385;48.928;10.330;2022-08-01T03:46:10;18.30;99.90
6696;DHT22;3385;48.928;10.330;2022-08-01T03:48:43;18.30;99.90
6696;DHT22;3385;48.928;10.330;2022-08-01T03:51:10;18.30;99.90
6696;DHT22;3385;48.928;10.330;2022-08-01T03:53:38;18.30;99.90
6696;DHT22;3385;48.928;10.330;2022-08-01T03:56:07;18.30;99.90
6696;DHT22;3385;48.928;10.330;2022-08-01T03:58:34;18.30;99.90
6696;DHT22;3385;48.928;10.330;2022-08-01T04:01:00;18.30;99.90
6696;DHT22;3385;48.928;10.330;2022-08-01T04:03:27;18.30;99.90
6696;DHT22;3385;48.928;10.330;2022-08-01T04:05:53;18.30;99.90
6696;DHT22;3385;48.928;10.330;2022-08-01T04:08:19;18.20;99.90
6696;DHT22;3385;48.928;10.330;2022-08-01T04:10:44;18.20;99.90
6696;DHT22;3385;48.928;10.330;2022-08-01T04:13:10;18.20;99.90
6696;DHT22;3385;48.928;10.330;2022-08-01T04:15:36;18.30;99.90
6696;DHT22;3385;48.928;10.330;2022-08-01T04:18:02;18.30;99.90
6696;DHT22;3385;48.928;10.330;2022-08-01T04:20:28;18.40;99.90
6696;DHT22;3385;48.928;10.330;2022-08-01T04:22:53;18.40;99.90
6696;DHT22;3385;48.928;10.330;2022-08-01T04:25:33;18.40;99.90
6696;DHT22;3385;48.928;10.330;2022-08-01T04:28:00;18.40;99.90
6696;DHT22;3385;48.928;10.330;2022-08-01T04:30:32;18.40;99.90
6696;DHT22;3385;48.928;10.330;2022-08-01T04:33:01;18.40;99.90
6696;DHT22;3385;48.928;10.330;2022-08-01T04:35:29;18.40;99.90
6696;DHT22;3385;48.928;10.330;2022-08-01T04:37:56;18.40;99.90
6696;DHT22;3385;48.928;10.330;2022-08-01T04:40:22;18.40;99.90
6696;DHT22;3385;48.928;10.330;2022-08-01T04:42:49;18.40;99.90
6696;DHT22;3385;48.928;10.330;2022-08-01T04:45:16;18.40;99.90
6696;DHT22;3385;48.928;10.330;2022-08-01T04:47:43;18.50;99.90
6696;DHT22;3385;48.928;10.330;2022-08-01T04:50:10;18.50;99.90
6696;DHT22;3385;48.928;10.330;2022-08-01T04:52:37;18.50;99.90
6696;DHT22;3385;48.928;10.330;2022-08-01T04:55:04;18.60;99.90
6696;DHT22;3385;48.928;10.330;2022-08-01T04:57:34;18.60;99.90
6696;DHT22;3385;48.928;10.330;2022-08-01T05:00:02;18.60;99.90
6696;DHT22;3385;48.928;10.330;2022-08-01T05:02:28;18.60;99.90
6696;DHT22;3385;48.928;10.330;2022-08-01T05:04:54;18.60;99.90
6696;DHT22;3385;48.928;10.330;2022-08-01T05:07:23;18.60;99.90
6696;DHT22;3385;48.928;10.330;2022-08-01T05:09:49;18.70;99.90
6696;DHT22;3385;48.928;10.330;2022-08-01T05:12:16;18.70;99.90
6696;DHT22;3385;48.928;10.330;2022-08-01T05:14:42;18.80;99.90
6696;DHT22;3385;48.928;10.330;2022-08-01T05:17:09;18.80;99.90
6696;DHT22;3385;48.928;10.330;2022-08-01T05:19:35;18.90;99.90
6696;DHT22;3385;48.928;10.330;2022-08-01T05:22:04;19.00;99.90
6696;DHT22;3385;48.928;10.330;2022-08-01T05:24:34;19.10;99.90
6696;DHT22;3385;48.928;10.330;2022-08-01T05:27:00;19.20;99.90
6696;DHT22;3385;48.928;10.330;2022-08-01T05:29:27;19.20;99.90
6696;DHT22;3385;48.928;10.330;2022-08-01T05:31:53;19.20;99.90
6696;DHT22;3385;48.928;10.330;2022-08-01T05:34:19;19.20;99.90
6696;DHT22;3385;48.928;10.330;2022-08-01T05:36:45;19.30;99.90
6696;DHT22;3385;48.928;10.330;2022-08-01T05:39:12;19.30;99.90
6696;DHT22;3385;48.928;10.330;2022-08-01T05:41:38;19.30;99.90
6696;DHT22;3385;48.928;10.330;2022-08-01T05:44:04;19.30;99.90
6696;DHT22;3385;48.928;10.330;2022-08-01T05:46:31;19.30;99.90
6696;DHT22;3385;48.928;10.330;2022-08-01T05:49:01;19.40;99.90
6696;DHT22;3385;48.928;10.330;2022-08-01T05:51:27;19.40;99.90
6696;DHT22;3385;48.928;10.330;2022-08-01T05:53:53;19.40;99.90
6696;DHT22;3385;48.928;10.330;2022-08-01T05:56:20;19.40;99.90
6696;DHT22;3385;48.928;10.330;2022-08-01T05:58:48;19.40;99.90
6696;DHT22;3385;48.928;10.330;2022-08-01T06:01:15;19.40;99.90
6696;DHT22;3385;48.928;10.330;2022-08-01T06:03:41;19.50;99.90
6696;DHT22;3385;48.928;10.330;2022-08-01T06:06:13;19.50;99.90
6696;DHT22;3385;48.928;10.330;2022-08-01T06:08:42;19.70;99.90
6696;DHT22;3385;48.928;10.330;2022-08-01T06:11:07;19.80;99.90
6696;DHT22;3385;48.928;10.330;2022-08-01T06:13:33;19.90;99.90
6696;DHT22;3385;48.928;10.330;2022-08-01T06:15:59;19.90;99.90
6696;DHT22;3385;48.928;10.330;2022-08-01T06:18:25;19.90;99.90
6696;DHT22;3385;48.928;10.330;2022-08-01T06:20:50;20.00;99.90
6696;DHT22;3385;48.928;10.330;2022-08-01T06:23:16;20.00;99.90
6696;DHT22;3385;48.928;10.330;2022-08-01T06:25:42;20.00;99.90
6696;DHT22;3385;48.928;10.330;2022-08-01T06:28:09;20.00;99.90
6696;DHT22;3385;48.928;10.330;2022-08-01T06:30:35;20.00;99.90
6696;DHT22;3385;48.928;10.330;2022-08-01T06:33:00;20.00;99.90
6696;DHT22;3385;48.928;10.330;2022-08-01T06:35:28;20.00;99.90
6696;DHT22;3385;48.928;10.330;2022-08-01T06:37:56;20.10;99.90
6696;DHT22;3385;48.928;10.330;2022-08-01T06:40:21;20.10;99.90
6696;DHT22;3385;48.928;10.330;2022-08-01T06:42:47;20.10;99.90
6696;DHT22;3385;48.928;10.330;2022-08-01T06:45:13;20.30;99.90
6696;DHT22;3385;48.928;10.330;2022-08-01T06:47:40;20.40;99.90
6696;DHT22;3385;48.928;10.330;2022-08-01T06:50:07;20.50;99.90
6696;DHT22;3385;48.928;10.330;2022-08-01T06:52:34;20.50;99.90
6696;DHT22;3385;48.928;10.330;2022-08-01T06:55:00;20.60;99.90
6696;DHT22;3385;48.928;10.330;2022-08-01T06:57:26;20.60;99.90
6696;DHT22;3385;48.928;10.330;2022-08-01T06:59:53;20.70;99.90
6696;DHT22;3385;48.928;10.330;2022-08-01T07:02:18;20.60;99.90
6696;DHT22;3385;48.928;10.330;2022-08-01T07:04:44;20.60;99.90
6696;DHT22;3385;48.928;10.330;2022-08-01T07:07:11;20.60;99.90
6696;DHT22;3385;48.928;10.330;2022-08-01T07:09:37;20.60;99.90
6696;DHT22;3385;48.928;10.330;2022-08-01T07:12:06;20.70;99.90
6696;DHT22;3385;48.928;10.330;2022-08-01T07:14:32;20.80;99.90
6696;DHT22;3385;48.928;10.330;2022-08-01T07:16:58;21.00;99.90
6696;DHT22;3385;48.928;10.330;2022-08-01T07:19:24;21.00;99.90
6696;DHT22;3385;48.928;10.330;2022-08-01T07:21:49;21.00;99.90
6696;DHT22;3385;48.928;10.330;2022-08-01T07:24:15;21.00;99.90
6696;DHT22;3385;48.928;10.330;2022-08-01T07:26:44;21.00;99.90
6696;DHT22;3385;48.928;10.330;2022-08-01T07:29:10;21.00;99.90
6696;DHT22;3385;48.928;10.330;2022-08-01T07:31:35;21.00;99.90
6696;DHT22;3385;48.928;10.330;2022-08-01T07:34:01;21.00;99.90
6696;DHT22;3385;48.928;10.330;2022-08-01T07:36:27;21.10;99.90
6696;DHT22;3385;48.928;10.330;2022-08-01T07:38:53;21.10;99.90
6696;DHT22;3385;48.928;10.330;2022-08-01T07:41:18;21.20;99.90
6696;DHT22;3385;48.928;10.330;2022-08-01T07:43:44;21.40;99.90
6696;DHT22;3385;48.928;10.330;2022-08-01T07:46:10;21.60;99.90
6696;DHT22;3385;48.928;10.330;2022-08-01T07:48:36;21.70;99.90
6696;DHT22;3385;48.928;10.330;2022-08-01T07:51:01;21.80;99.90
6696;DHT22;3385;48.928;10.330;2022-08-01T07:53:27;21.90;99.90
6696;DHT22;3385;48.928;10.330;2022-08-01T07:55:54;22.10;99.90
6696;DHT22;3385;48.928;10.330;2022-08-01T07:58:20;22.30;99.90
6696;DHT22;3385;48.928;10.330;2022-08-01T08:00:46;22.50;99.90
6696;DHT22;3385;48.928;10.330;2022-08-01T08:03:11;22.60;99.90
6696;DHT22;3385;48.928;10.330;2022-08-01T08:05:37;22.80;99.90
6696;DHT22;3385;48.928;10.330;2022-08-01T08:08:07;22.90;99.90
6696;DHT22;3385;48.928;10.330;2022-08-01T08:10:33;23.10;99.90
6696;DHT22;3385;48.928;10.330;2022-08-01T08:12:59;23.20;99.90
6696;DHT22;3385;48.928;10.330;2022-08-01T08:15:27;23.20;99.90
6696;DHT22;3385;48.928;10.330;2022-08-01T08:17:53;23.40;99.90
6696;DHT22;3385;48.928;10.330;2022-08-01T08:20:19;23.50;99.90
6696;DHT22;3385;48.928;10.330;2022-08-01T08:22:46;23.50;99.90
6696;DHT22;3385;48.928;10.330;2022-08-01T08:25:12;23.40;99.90
6696;DHT22;3385;48.928;10.330;2022-08-01T08:27:38;23.40;99.90
6696;DHT22;3385;48.928;10.330;2022-08-01T08:30:05;23.50;99.90
6696;DHT22;3385;48.928;10.330;2022-08-01T08:32:36;23.60;99.90
6696;DHT22;3385;48.928;10.330;2022-08-01T08:35:03;23.90;99.90
6696;DHT22;3385;48.928;10.330;2022-08-01T08:37:29;24.10;99.90
6696;DHT22;3385;48.928;10.330;2022-08-01T08:39:54;24.20;99.90
6696;DHT22;3385;48.928;10.330;2022-08-01T08:42:20;24.10;99.90
6696;DHT22;3385;48.928;10.330;2022-08-01T08:44:46;24.10;99.90
6696;DHT22;3385;48.928;10.330;2022-08-01T08:47:13;24.00;99.90
6696;DHT22;3385;48.928;10.330;2022-08-01T08:49:39;24.00;99.90
6696;DHT22;3385;48.928;10.330;2022-08-01T08:52:07;24.00;99.90
6696;DHT22;3385;48.928;10.330;2022-08-01T08:54:36;24.10;99.90
6696;DHT22;3385;48.928;10.330;2022-08-01T08:57:02;24.10;99.90
6696;DHT22;3385;48.928;10.330;2022-08-01T08:59:29;24.10;99.90
6696;DHT22;3385;48.928;10.330;2022-08-01T09:01:55;24.10;99.90
6696;DHT22;3385;48.928;10.330;2022-08-01T09:04:22;24.20;99.90
6696;DHT22;3385;48.928;10.330;2022-08-01T09:06:48;24.50;99.90
6696;DHT22;3385;48.928;10.330;2022-08-01T09:09:15;24.60;99.90
6696;DHT22;3385;48.928;10.330;2022-08-01T09:11:40;24.70;99.90
6696;DHT22;3385;48.928;10.330;2022-08-01T09:14:15;24.80;99.90
6696;DHT22;3385;48.928;10.330;2022-08-01T09:16:58;24.90;99.90
6696;DHT22;3385;48.928;10.330;2022-08-01T09:19:23;24.90;99.90
6696;DHT22;3385;48.928;10.330;2022-08-01T09:22:04;24.70;99.90
6696;DHT22;3385;48.928;10.330;2022-08-01T09:24:31;24.60;99.90
6696;DHT22;3385;48.928;10.330;2022-08-01T09:26:58;24.80;99.90
6696;DHT22;3385;48.928;10.330;2022-08-01T09:29:29;24.90;99.90
6696;DHT22;3385;48.928;10.330;2022-08-01T09:31:56;24.90;99.90
6696;DHT22;3385;48.928;10.330;2022-08-01T09:34:26;24.90;99.90
6696;DHT22;3385;48.928;10.330;2022-08-01T09:36:57;25.00;99.90
6696;DHT22;3385;48.928;10.330;2022-08-01T09:39:31;25.20;99.90
6696;DHT22;3385;48.928;10.330;2022-08-01T09:42:00;25.40;99.90
6696;DHT22;3385;48.928;10.330;2022-08-01T09:44:41;25.50;99.90
6696;DHT22;3385;48.928;10.330;2022-08-01T09:47:07;25.40;99.90
6696;DHT22;3385;48.928;10.330;2022-08-01T09:49:34;25.30;99.90
6696;DHT22;3385;48.928;10.330;2022-08-01T09:54:40;25.40;99.90
6696;DHT22;3385;48.928;10.330;2022-08-01T09:57:15;25.30;99.90
6696;DHT22;3385;48.928;10.330;2022-08-01T09:59:45;25.20;99.90
6696;DHT22;3385;48.928;10.330;2022-08-01T10:02:13;25.10;99.90
6696;DHT22;3385;48.928;10.330;2022-08-01T10:05:00;25.00;99.90
6696;DHT22;3385;48.928;10.330;2022-08-01T10:07:26;25.30;99.90
6696;DHT22;3385;48.928;10.330;2022-08-01T10:09:52;25.40;99.90
6696;DHT22;3385;48.928;10.330;2022-08-01T10:12:20;25.70;99.90
6696;DHT22;3385;48.928;10.330;2022-08-01T10:14:49;25.80;99.90
6696;DHT22;3385;48.928;10.330;2022-08-01T10:17:17;26.00;99.60
6696;DHT22;3385;48.928;10.330;2022-08-01T10:19:44;26.00;99.40
6696;DHT22;3385;48.928;10.330;2022-08-01T10:22:12;26.00;99.10
6696;DHT22;3385;48.928;10.330;2022-08-01T10:24:45;26.10;99.50
6696;DHT22;3385;48.928;10.330;2022-08-01T10:27:15;26.10;98.80
6696;DHT22;3385;48.928;10.330;2022-08-01T10:32:13;25.90;98.50
6696;DHT22;3385;48.928;10.330;2022-08-01T10:34:39;25.90;98.70
6696;DHT22;3385;48.928;10.330;2022-08-01T10:37:05;26.10;98.50
6696;DHT22;3385;48.928;10.330;2022-08-01T10:39:33;26.50;98.30
6696;DHT22;3385;48.928;10.330;2022-08-01T10:42:00;26.90;96.70
6696;DHT22;3385;48.928;10.330;2022-08-01T10:44:27;27.00;96.00
6696;DHT22;3385;48.928;10.330;2022-08-01T10:46:59;27.00;95.60
6696;DHT22;3385;48.928;10.330;2022-08-01T10:49:30;27.00;95.60
6696;DHT22;3385;48.928;10.330;2022-08-01T10:51:57;26.90;95.70
6696;DHT22;3385;48.928;10.330;2022-08-01T10:54:26;26.70;95.70
6696;DHT22;3385;48.928;10.330;2022-08-01T10:56:52;26.50;95.60
6696;DHT22;3385;48.928;10.330;2022-08-01T10:59:22;26.50;96.00
6696;DHT22;3385;48.928;10.330;2022-08-01T11:02:04;26.80;95.60
6696;DHT22;3385;48.928;10.330;2022-08-01T11:05:00;27.30;95.00
6696;DHT22;3385;48.928;10.330;2022-08-01T11:07:53;28.00;94.50
6696;DHT22;3385;48.928;10.330;2022-08-01T11:10:40;28.30;92.10
6696;DHT22;3385;48.928;10.330;2022-08-01T11:13:09;28.10;91.90
6696;DHT22;3385;48.928;10.330;2022-08-01T11:15:37;28.00;91.70
6696;DHT22;3385;48.928;10.330;2022-08-01T11:20:56;28.20;91.40
6696;DHT22;3385;48.928;10.330;2022-08-01T11:23:23;28.50;90.50
6696;DHT22;3385;48.928;10.330;2022-08-01T11:30:49;28.70;86.20
6696;DHT22;3385;48.928;10.330;2022-08-01T11:33:17;28.50;88.60
6696;DHT22;3385;48.928;10.330;2022-08-01T11:38:47;28.10;88.90
6696;DHT22;3385;48.928;10.330;2022-08-01T11:46:50;27.80;91.80
6696;DHT22;3385;48.928;10.330;2022-08-01T11:54:35;29.30;84.60
6696;DHT22;3385;48.928;10.330;2022-08-01T11:57:05;29.70;82.80
6696;DHT22;3385;48.928;10.330;2022-08-01T11:59:46;30.10;81.70
6696;DHT22;3385;48.928;10.330;2022-08-01T12:02:24;30.10;79.10
6696;DHT22;3385;48.928;10.330;2022-08-01T12:05:04;29.70;78.10
6696;DHT22;3385;48.928;10.330;2022-08-01T12:07:31;29.80;80.70
6696;DHT22;3385;48.928;10.330;2022-08-01T12:10:18;30.70;77.70
6696;DHT22;3385;48.928;10.330;2022-08-01T12:12:49;30.70;73.30
6696;DHT22;3385;48.928;10.330;2022-08-01T12:15:15;30.10;75.50
6696;DHT22;3385;48.928;10.330;2022-08-01T12:20:13;29.60;78.70
6696;DHT22;3385;48.928;10.330;2022-08-01T12:22:40;30.20;73.30
6696;DHT22;3385;48.928;10.330;2022-08-01T12:25:12;30.70;71.80
6696;DHT22;3385;48.928;10.330;2022-08-01T12:27:40;31.60;68.70
6696;DHT22;3385;48.928;10.330;2022-08-01T12:30:09;32.50;65.90
6696;DHT22;3385;48.928;10.330;2022-08-01T12:32:37;33.20;63.30
6696;DHT22;3385;48.928;10.330;2022-08-01T12:35:12;34.20;61.00
6696;DHT22;3385;48.928;10.330;2022-08-01T12:37:43;34.50;58.10
6696;DHT22;3385;48.928;10.330;2022-08-01T12:40:22;33.60;58.20
6696;DHT22;3385;48.928;10.330;2022-08-01T12:42:51;32.80;60.40
6696;DHT22;3385;48.928;10.330;2022-08-01T12:45:25;32.20;61.30
6696;DHT22;3385;48.928;10.330;2022-08-01T12:47:56;31.30;62.80
6696;DHT22;3385;48.928;10.330;2022-08-01T12:50:27;30.50;65.50
6696;DHT22;3385;48.928;10.330;2022-08-01T12:52:55;30.20;68.30
6696;DHT22;3385;48.928;10.330;2022-08-01T12:55:22;30.80;67.20
6696;DHT22;3385;48.928;10.330;2022-08-01T12:58:07;32.30;64.30
6696;DHT22;3385;48.928;10.330;2022-08-01T13:00:34;34.00;58.90
6696;DHT22;3385;48.928;10.330;2022-08-01T13:03:20;35.20;56.60
6696;DHT22;3385;48.928;10.330;2022-08-01T13:05:54;36.20;52.90
6696;DHT22;3385;48.928;10.330;2022-08-01T13:08:32;35.90;52.90
6696;DHT22;3385;48.928;10.330;2022-08-01T13:13:49;36.20;49.20
6696;DHT22;3385;48.928;10.330;2022-08-01T13:16:23;36.20;49.40
6696;DHT22;3385;48.928;10.330;2022-08-01T13:18:56;36.80;49.60
6696;DHT22;3385;48.928;10.330;2022-08-01T13:21:22;37.00;48.80
6696;DHT22;3385;48.928;10.330;2022-08-01T13:24:02;37.60;48.80
6696;DHT22;3385;48.928;10.330;2022-08-01T13:27:19;37.70;47.20
6696;DHT22;3385;48.928;10.330;2022-08-01T13:29:35;37.80;47.80
6696;DHT22;3385;48.928;10.330;2022-08-01T13:32:16;38.50;46.00
6696;DHT22;3385;48.928;10.330;2022-08-01T13:34:42;38.00;45.00
6696;DHT22;3385;48.928;10.330;2022-08-01T13:37:08;36.70;45.50
6696;DHT22;3385;48.928;10.330;2022-08-01T13:39:34;36.40;45.90
6696;DHT22;3385;48.928;10.330;2022-08-01T13:42:06;36.80;45.30
6696;DHT22;3385;48.928;10.330;2022-08-01T13:44:32;37.20;45.90
6696;DHT22;3385;48.928;10.330;2022-08-01T13:46:58;37.50;44.90
6696;DHT22;3385;48.928;10.330;2022-08-01T13:49:24;37.10;45.70
6696;DHT22;3385;48.928;10.330;2022-08-01T13:51:50;36.20;46.60
6696;DHT22;3385;48.928;10.330;2022-08-01T13:54:16;35.60;47.30
6696;DHT22;3385;48.928;10.330;2022-08-01T13:56:42;34.50;48.10
6696;DHT22;3385;48.928;10.330;2022-08-01T13:59:09;34.20;48.10
6696;DHT22;3385;48.928;10.330;2022-08-01T14:01:35;35.00;47.60
6696;DHT22;3385;48.928;10.330;2022-08-01T14:04:03;34.90;47.20
6696;DHT22;3385;48.928;10.330;2022-08-01T14:06:30;34.40;49.00
6696;DHT22;3385;48.928;10.330;2022-08-01T14:08:56;33.50;50.40
6696;DHT22;3385;48.928;10.330;2022-08-01T14:11:22;32.50;52.00
6696;DHT22;3385;48.928;10.330;2022-08-01T14:13:49;31.60;54.20
6696;DHT22;3385;48.928;10.330;2022-08-01T14:16:16;30.80;55.50
6696;DHT22;3385;48.928;10.330;2022-08-01T14:18:42;30.10;57.60
6696;DHT22;3385;48.928;10.330;2022-08-01T14:21:08;29.70;59.10
6696;DHT22;3385;48.928;10.330;2022-08-01T14:23:33;30.70;57.20
6696;DHT22;3385;48.928;10.330;2022-08-01T14:25:59;31.50;55.20
6696;DHT22;3385;48.928;10.330;2022-08-01T14:28:25;31.90;54.10
6696;DHT22;3385;48.928;10.330;2022-08-01T14:30:53;32.90;53.50
6696;DHT22;3385;48.928;10.330;2022-08-01T14:33:21;34.70;51.70
6696;DHT22;3385;48.928;10.330;2022-08-01T14:35:47;36.00;48.10
6696;DHT22;3385;48.928;10.330;2022-08-01T14:38:14;37.00;47.40
6696;DHT22;3385;48.928;10.330;2022-08-01T14:40:41;37.80;44.80
6696;DHT22;3385;48.928;10.330;2022-08-01T14:43:07;37.60;44.60
6696;DHT22;3385;48.928;10.330;2022-08-01T14:45:33;36.70;45.70
6696;DHT22;3385;48.928;10.330;2022-08-01T14:47:59;36.70;45.20
6696;DHT22;3385;48.928;10.330;2022-08-01T14:50:25;36.20;45.30
6696;DHT22;3385;48.928;10.330;2022-08-01T14:52:53;35.00;46.80
6696;DHT22;3385;48.928;10.330;2022-08-01T14:55:19;34.30;48.30
6696;DHT22;3385;48.928;10.330;2022-08-01T14:57:49;34.10;49.70
6696;DHT22;3385;48.928;10.330;2022-08-01T15:00:16;34.20;49.80
6696;DHT22;3385;48.928;10.330;2022-08-01T15:02:42;34.40;50.40
6696;DHT22;3385;48.928;10.330;2022-08-01T15:05:08;35.40;48.70
6696;DHT22;3385;48.928;10.330;2022-08-01T15:07:35;36.50;47.20
6696;DHT22;3385;48.928;10.330;2022-08-01T15:10:03;36.80;45.00
6696;DHT22;3385;48.928;10.330;2022-08-01T15:12:29;36.20;46.00
6696;DHT22;3385;48.928;10.330;2022-08-01T15:14:55;35.10;46.80
6696;DHT22;3385;48.928;10.330;2022-08-01T15:17:22;33.60;48.90
6696;DHT22;3385;48.928;10.330;2022-08-01T15:19:51;32.70;50.60
6696;DHT22;3385;48.928;10.330;2022-08-01T15:22:17;31.70;51.70
6696;DHT22;3385;48.928;10.330;2022-08-01T15:24:43;31.20;53.00
6696;DHT22;3385;48.928;10.330;2022-08-01T15:27:09;30.80;54.00
6696;DHT22;3385;48.928;10.330;2022-08-01T15:29:36;30.50;55.10
6696;DHT22;3385;48.928;10.330;2022-08-01T15:32:03;30.30;55.00
6696;DHT22;3385;48.928;10.330;2022-08-01T15:34:30;30.20;55.90
6696;DHT22;3385;48.928;10.330;2022-08-01T15:36:56;30.30;55.60
6696;DHT22;3385;48.928;10.330;2022-08-01T15:39:22;31.20;54.00
6696;DHT22;3385;48.928;10.330;2022-08-01T15:41:48;31.40;53.40
6696;DHT22;3385;48.928;10.330;2022-08-01T15:44:14;31.20;54.80
6696;DHT22;3385;48.928;10.330;2022-08-01T15:46:40;31.10;53.80
6696;DHT22;3385;48.928;10.330;2022-08-01T15:49:06;31.20;52.30
6696;DHT22;3385;48.928;10.330;2022-08-01T15:51:32;30.80;53.30
6696;DHT22;3385;48.928;10.330;2022-08-01T15:53:59;30.50;53.60
6696;DHT22;3385;48.928;10.330;2022-08-01T15:56:29;30.20;54.40
6696;DHT22;3385;48.928;10.330;2022-08-01T15:58:55;29.80;54.60
6696;DHT22;3385;48.928;10.330;2022-08-01T16:01:21;29.70;56.70
6696;DHT22;3385;48.928;10.330;2022-08-01T16:03:47;30.20;55.40
6696;DHT22;3385;48.928;10.330;2022-08-01T16:06:13;30.50;53.90
6696;DHT22;3385;48.928;10.330;2022-08-01T16:08:39;30.80;54.30
6696;DHT22;3385;48.928;10.330;2022-08-01T16:11:04;31.00;54.50
6696;DHT22;3385;48.928;10.330;2022-08-01T16:13:30;31.10;53.40
6696;DHT22;3385;48.928;10.330;2022-08-01T16:15:56;30.80;53.40
6696;DHT22;3385;48.928;10.330;2022-08-01T16:18:24;30.50;54.60
6696;DHT22;3385;48.928;10.330;2022-08-01T16:20:50;30.20;54.90
6696;DHT22;3385;48.928;10.330;2022-08-01T16:23:15;29.70;55.90
6696;DHT22;3385;48.928;10.330;2022-08-01T16:25:42;29.20;57.50
6696;DHT22;3385;48.928;10.330;2022-08-01T16:28:09;28.70;59.10
6696;DHT22;3385;48.928;10.330;2022-08-01T16:30:35;28.30;60.70
6696;DHT22;3385;48.928;10.330;2022-08-01T16:33:01;28.10;59.90